Brisbane, Queensland, Australia, Latitude 27°S 23' 52", Longitude 152° E 55' 35", Elevation 76 m

Sun 25 Oct 2020 12:30:02 pm: Temperature: 25.9 °C, Humidity: 82 %, Wind speed: 5 km/h, Wind Gust: 10 km/h, Rain today: 4.0 mm, MSLP: 1009.18 hPa

Website under continual development from 10 years of weather data. Please contact us if you find issues or like to provide feedback.

Recent Observations

This page presents the weather data from the last 72 hours at 30 minute intervals.

Last updated at 12:30:02 pm AEST on Sun 25 October 2020.

Last 24 hours
Date/Time(AEST) Temp. ( °C) Dew Point ( °C) Relative Humidity (%) Apparent Temp. ( °C) Wind Direction Wind Speed (kph) Wind Gust (kph) Wind Speed (kts) Wind Gust (kts) MSL Pressure (hPa) Rain since midnight (mm)
25/10 12:30 pm 25.9 22.6 82 29.9 SE 5 10 3 5 1009.18 4.0
25/10 12:00 pm 24.4 22.5 89 29.3 E 0 6 0 3 1009.75 4.0
25/10 11:30 am 27.8 22.5 73 30.7 NNW 3 10 2 5 1010.23 3.8
25/10 11:00 am 27.9 20.2 63 31 ESE 1 10 1 5 1010.06 0.2
25/10 10:30 am 28.1 20.9 65 27.3 CALM 7 14 4 8 1010.46 0.2
25/10 10:00 am 27.2 20.3 66 26.8 NNW 6 15 3 8 1010.87 0.2
25/10 9:30 am 26.2 20.5 71 23.8 NNW 9 21 5 11 1011.07 0.2
25/10 9:00 am 25.7 21.4 77 27.3 N 4 10 2 5 1011.28 0.2
25/10 8:30 am 24.3 21.6 85 28.1 N 1 6 1 3 1011.34 0.2
25/10 8:00 am 21.6 20.7 95 24.3 N 2 6 1 3 1011.45 0.2
25/10 7:30 am 20.8 20.5 98 22.6 N 3 6 2 3 1011.34 0.2
25/10 7:00 am 19.7 19.4 98 23.1 CALM 0 0 0 0 1011.31 0.2
25/10 6:30 am 18.7 18.3 98 21.7 CALM 0 2 0 1 1010.97 0.2
25/10 6:00 am 17.8 17.5 98 20.4 CALM 0 0 0 0 1010.80 0.2
25/10 5:30 am 17.6 17.2 98 20.1 CALM 0 0 0 0 1010.53 0.2
25/10 5:00 am 17.5 17.0 97 19.9 CALM 0 0 0 0 1010.19 0.2
25/10 4:30 am 17.5 17.0 97 19.9 CALM 0 0 0 0 1009.89 0.2
25/10 4:00 am 17.6 17.1 97 20 CALM 0 0 0 0 1009.69 0.2
25/10 3:30 am 17.8 17.3 97 20.3 CALM 0 0 0 0 1009.82 0.2
25/10 3:00 am 17.7 17.2 97 20.2 CALM 0 4 0 2 1009.52 0.2
25/10 2:30 am 17.4 16.9 97 19.7 CALM 0 0 0 0 1009.14 0.2
25/10 2:00 am 17.4 16.7 96 19.7 CALM 0 0 0 0 1009.35 0.2
25/10 1:30 am 17.8 17.3 97 20.3 CALM 0 0 0 0 1009.69 0.2
25/10 1:00 am 18.1 17.4 96 20.7 CALM 0 0 0 0 1009.69 0.0
25/10 12:30 am 18.4 17.8 96 21.1 CALM 0 0 0 0 1009.92 0.0
25/10 12:00 am 18.7 18.2 97 21.6 CALM 0 0 0 0 1010.26 0.0
24/10 11:30 pm 18.9 18.4 97 21.9 NNW 0 6 0 3 1010.33 20.4
24/10 11:00 pm 18.9 18.2 96 18.3 NNW 5 6 3 3 1010.50 20.4
24/10 10:30 pm 19.1 18.5 96 20 N 3 8 2 4 1010.94 20.4
24/10 10:00 pm 19.4 18.9 97 21.9 NNW 1 8 1 4 1011.28 20.4
24/10 9:30 pm 19.3 18.6 96 18.9 N 0 0 0 0 1010.87 20.4
24/10 9:00 pm 19.4 18.8 96 22.5 CALM 0 0 0 0 1010.87 20.4
24/10 8:30 pm 19.6 19.0 96 22.8 CALM 0 0 0 0 1010.74 20.4
24/10 8:00 pm 19.7 19.0 96 23 CALM 0 2 0 1 1010.67 20.4
24/10 7:30 pm 19.7 18.9 95 21.5 N 2 6 1 3 1010.67 20.4
24/10 7:00 pm 19.9 19.2 96 19.7 N 5 8 3 4 1010.57 20.4
24/10 6:30 pm 20.2 19.6 96 19.5 NE 6 19 3 10 1010.57 20.4
24/10 6:00 pm 20.5 19.8 96 22 NE 3 6 2 3 1010.94 20.4
24/10 5:30 pm 20.8 20.1 96 20.4 NNE 6 14 3 8 1011.01 20.0
24/10 5:00 pm 21.1 20.2 95 24.2 NE 1 6 1 3 1010.57 19.4
24/10 4:30 pm 21.3 20.5 95 25.2 CALM 0 0 0 0 1010.50 18.8
24/10 4:00 pm 21.3 20.3 94 23 CALM 3 6 2 3 1010.70 18.0
24/10 3:30 pm 21.6 20.5 94 25.6 CALM 0 0 0 0 1010.33 14.8
24/10 3:00 pm 21.6 20.4 93 25.5 CALM 0 0 0 0 1010.19 14.2
24/10 2:30 pm 21.5 20.3 93 24.6 SSW 1 4 1 2 1010.06 14.2
24/10 2:00 pm 21.3 19.9 92 20.8 WNW 6 12 3 6 1010.63 13.8
24/10 1:30 pm 22.3 20.8 91 20.8 NNE 8 17 4 9 1010.87 7.6
24/10 1:00 pm 24.1 20.8 82 19.8 NE 12 19 6 10 1011.11 0.8
24 to 48 hours ago
Date/Time(AEST) Temp. °C Dew Point °C Relative Humidity % Appararent Temp. °C Wind Direction Wind Speed (kph) Wind Gust (kph) Wind Speed (kts) Wind Gust (kts) MSL Pressure (hPa) Rain since midnight (mm)
24/10 12:30 pm 25.4 20.2 73 22.2 ENE 10 19 5 10 1011.14 0.6
24/10 12:00 pm 26.2 18.9 64 23.1 NNE 9 15 5 8 1011.48 0.6
24/10 11:30 am 26.3 18.9 64 23.2 NNE 9 21 5 11 1011.79 0.6
24/10 11:00 am 25.9 19.0 66 23.6 NNE 8 15 4 8 1012.16 0.6
24/10 10:30 am 25.1 18.7 68 23.3 N 7 14 4 8 1012.77 0.6
24/10 10:00 am 24.2 18.9 72 21.8 N 8 14 4 8 1013.24 0.6
24/10 9:30 am 24.1 19.1 74 21.1 NNW 9 12 5 6 1013.55 0.6
24/10 9:00 am 24.2 19.2 74 18.5 NNE 13 21 7 11 1013.51 0.6
24/10 8:30 am 23.9 19.6 77 21.1 NNE 9 15 5 8 1013.55 0.6
24/10 8:00 am 22.7 19.6 83 25.5 NNE 1 4 1 2 1013.55 0.6
24/10 7:30 am 21.4 19.7 90 24.9 CALM 0 4 0 2 1013.61 0.6
24/10 7:00 am 20.4 19.2 93 23.7 CALM 0 8 0 4 1013.65 0.6
24/10 6:30 am 20.3 18.8 91 23.4 CALM 0 0 0 0 1013.65 0.6
24/10 6:00 am 20.2 18.5 90 23.2 CALM 0 2 0 1 1013.68 0.0
24/10 5:30 am 20.1 18.4 90 23.1 CALM 0 2 0 1 1013.28 0.0
24/10 5:00 am 20.2 18.3 89 23.1 CALM 0 0 0 0 1013.00 0.0
24/10 4:30 am 20.4 18.3 88 21.2 NNW 3 6 2 3 1013.31 0.0
24/10 4:00 am 20.4 18.3 88 21.2 N 3 12 2 6 1012.80 0.0
24/10 3:30 am 20.4 18.3 88 21.2 N 3 12 2 6 1012.56 0.0
24/10 3:00 am 20.4 18.6 89 22.7 NE 1 2 1 1 1012.12 0.0
24/10 2:30 am 20.6 18.7 89 20.9 NNE 4 6 2 3 1012.16 0.0
24/10 2:00 am 20.7 18.8 89 20.4 NNE 5 10 3 5 1012.60 0.0
24/10 1:30 am 20.7 18.7 88 21 N 4 12 2 6 1012.97 0.0
24/10 1:00 am 20.8 18.8 88 17.6 N 9 14 5 8 1012.97 0.0
24/10 12:30 am 20.8 18.7 88 19.7 N 6 10 3 5 1013.28 0.0
24/10 12:00 am 20.8 18.5 87 23.8 CALM 0 6 0 3 1013.65 0.0
23/10 11:30 pm 20.9 18.5 86 22.5 N 2 4 1 2 1013.75 0.0
23/10 11:00 pm 21.1 18.7 86 18.6 N 8 12 4 6 1014.05 0.0
23/10 10:30 pm 21.2 18.6 85 20 N 6 12 3 6 1014.36 0.0
23/10 10:00 pm 21.3 18.5 84 22.2 N 3 8 2 4 1014.43 0.0
23/10 9:30 pm 21.3 18.3 83 22.1 NNW 2 14 1 8 1013.88 0.0
23/10 9:00 pm 21.3 18.3 83 22.8 N 2 14 1 8 1013.88 0.0
23/10 8:30 pm 21.5 18.1 81 22.2 NNW 3 8 2 4 1014.19 0.0
23/10 8:00 pm 21.7 17.9 79 20.9 N 5 12 3 6 1014.12 0.0
23/10 7:30 pm 21.9 17.3 75 20.9 NNE 5 15 3 8 1014.16 0.0
23/10 7:00 pm 22.3 16.3 69 18.1 N 9 12 5 6 1014.12 0.0
23/10 6:30 pm 22.3 17.0 72 19.1 NNE 8 17 4 9 1013.95 0.0
23/10 6:00 pm 22.6 17.7 74 18.3 NE 10 19 5 10 1013.61 0.0
23/10 5:30 pm 23.1 17.8 72 18.1 NNE 11 23 6 12 1013.34 0.0
23/10 5:00 pm 23.7 18.3 72 20.3 ENE 9 15 5 8 1013.14 0.0
23/10 4:30 pm 24.7 18.6 69 20.8 NE 10 21 5 11 1012.80 0.0
23/10 4:00 pm 25.7 18.6 65 21.8 NE 10 17 5 9 1012.36 0.0
23/10 3:30 pm 25.9 18.0 62 21 NE 11 17 6 9 1012.63 0.0
23/10 3:00 pm 27.1 18.9 61 24 NE 9 17 5 9 1012.67 0.0
23/10 2:30 pm 26.7 19.0 63 23.7 ENE 9 19 5 10 1013.04 0.0
23/10 2:00 pm 26.7 19.0 63 23.7 E 9 15 5 8 1013.38 0.0
23/10 1:30 pm 26.6 18.9 63 22.1 NE 11 17 6 9 1013.72 0.0
23/10 1:00 pm 27.4 18.7 59 24.2 NNE 9 19 5 10 1013.95 0.0
48 to 72 hours ago
Date/Time(AEST) Temp. °C Dew Point °C Relative Humidity % Appararent Temp. °C Wind Direction Wind Speed (kph) Wind Gust (kph) Wind Speed (kts) Wind Gust (kts) MSL Pressure (hPa) Rain since midnight (mm)
23/10 12:30 pm 26.1 19.0 65 25.1 ENE 6 12 3 6 1014.39 0.0
23/10 12:00 pm 25.4 19.1 68 24.5 NE 6 14 3 8 1014.87 0.0
23/10 11:30 am 24.8 18.5 68 25 E 4 12 2 6 1015.58 0.0
23/10 11:00 am 24.7 18.4 68 23.5 NE 6 14 3 8 1015.65 0.0
23/10 10:30 am 25.2 18.6 67 22.7 NNW 8 15 4 8 1015.51 0.0
23/10 10:00 am 24.8 18.5 68 22.9 NE 7 14 4 8 1016.02 0.0
23/10 9:30 am 24.2 18.6 71 22.4 NNE 7 21 4 11 1016.32 0.0
23/10 9:00 am 23.5 18.8 75 21.7 NE 7 19 4 10 1016.15 0.0
23/10 8:30 am 22.6 18.6 78 19.3 NNW 9 14 5 8 1016.32 0.0
23/10 8:00 am 21.6 18.0 80 21.6 NW 4 6 2 3 1016.09 0.0
23/10 7:30 am 20.8 18.0 84 21.5 N 3 10 2 5 1016.12 0.0
23/10 7:00 am 20.3 18.2 88 23.2 CALM 0 2 0 1 1015.92 0.0
23/10 6:30 am 19.2 17.8 92 21.9 CALM 0 0 0 0 1015.61 0.0
23/10 6:00 am 18.5 17.3 93 21 CALM 0 0 0 0 1015.21 0.0
23/10 5:30 am 18.3 17.2 93 20.7 CALM 0 0 0 0 1014.87 0.0
23/10 5:00 am 18.2 17.0 93 20.6 CALM 0 0 0 0 1014.53 0.0
23/10 4:30 am 18.2 17.1 93 20.6 CALM 0 0 0 0 1014.36 0.0
23/10 4:00 am 18.2 16.9 92 20.5 CALM 0 0 0 0 1014.49 0.0
23/10 3:30 am 18.3 17.0 92 20.7 CALM 0 0 0 0 1014.36 0.0
23/10 3:00 am 18.3 17.1 93 20.7 CALM 0 2 0 1 1014.53 0.0
23/10 2:30 am 18.1 17.1 94 20.5 CALM 0 0 0 0 1014.56 0.0
23/10 2:00 am 17.8 16.7 93 20 CALM 0 0 0 0 1014.60 0.0
23/10 1:30 am 17.7 16.5 93 19.9 CALM 0 0 0 0 1014.97 0.0
23/10 1:00 am 17.9 16.6 92 20.1 CALM 0 0 0 0 1015.44 0.0
23/10 12:30 am 18.4 16.9 91 20.7 CALM 0 0 0 0 1015.37 0.0
23/10 12:00 am 18.8 17.1 90 21.2 CALM 0 0 0 0 1015.88 0.0
22/10 11:30 pm 19.1 17.3 89 21.6 CALM 0 0 0 0 1016.32 8.6
22/10 11:00 pm 19.3 17.4 89 21.9 CALM 0 0 0 0 1016.29 8.6
22/10 10:30 pm 19.3 17.6 90 21.9 CALM 0 0 0 0 1016.15 8.6
22/10 10:00 pm 19.3 17.5 89 21.9 CALM 0 0 0 0 1016.39 8.6
22/10 9:30 pm 19.4 17.5 89 22 CALM 0 0 0 0 1016.26 8.4
22/10 9:00 pm 19.4 17.4 88 21.9 CALM 0 0 0 0 1016.26 8.4
22/10 8:30 pm 19.4 17.2 87 21.9 CALM 0 0 0 0 1016.12 8.4
22/10 8:00 pm 19.5 17.3 87 22 CALM 0 0 0 0 1015.82 8.4
22/10 7:30 pm 19.6 17.0 85 22 CALM 0 0 0 0 1015.31 8.4
22/10 7:00 pm 19.7 16.9 84 22 CALM 0 4 0 2 1014.97 8.4
22/10 6:30 pm 20.1 16.9 82 21.8 NE 1 4 1 2 1014.70 8.4
22/10 6:00 pm 20.7 17.3 81 21.1 ENE 3 8 2 4 1014.49 8.4
22/10 5:30 pm 21.1 17.7 81 20.3 NE 5 12 3 6 1014.16 8.4
22/10 5:00 pm 21.7 18.1 80 20.3 NE 6 15 3 8 1013.78 8.4
22/10 4:30 pm 22.3 18.0 77 20.9 E 6 10 3 5 1013.61 8.4
22/10 4:00 pm 22.1 18.4 80 18.8 NE 9 14 5 8 1013.61 8.4
22/10 3:30 pm 22.3 18.3 78 21 NE 6 12 3 6 1013.28 8.4
22/10 3:00 pm 21.6 18.4 82 19 NE 8 14 4 8 1013.31 8.4
22/10 2:30 pm 21.7 18.8 84 19.3 N 8 14 4 8 1013.58 8.4
22/10 2:00 pm 21.9 19.1 84 22.4 NE 4 14 2 8 1013.68 8.4
22/10 1:30 pm 21.4 19.9 91 21.5 NNE 5 17 3 9 1013.82 8.4
22/10 1:00 pm 20.6 18.9 90 21 NNE 4 8 2 4 1013.55 8.4